sensor_id;sensor_type;location;lat;lon;timestamp;temperature;humidity
22337;DHT22;14992;50.844;4.418;2023-03-23T00:00:22;14.00;99.90
22337;DHT22;14992;50.844;4.418;2023-03-23T00:03:03;14.00;99.90
22337;DHT22;14992;50.844;4.418;2023-03-23T00:05:51;14.10;99.90
22337;DHT22;14992;50.844;4.418;2023-03-23T00:08:36;14.00;99.90
22337;DHT22;14992;50.844;4.418;2023-03-23T00:11:26;14.00;99.90
22337;DHT22;14992;50.844;4.418;2023-03-23T00:14:09;14.10;99.90
22337;DHT22;14992;50.844;4.418;2023-03-23T00:17:08;14.00;99.90
22337;DHT22;14992;50.844;4.418;2023-03-23T00:19:44;14.00;99.90
22337;DHT22;14992;50.844;4.418;2023-03-23T00:22:38;14.00;99.90
22337;DHT22;14992;50.844;4.418;2023-03-23T00:25:15;14.10;99.90
22337;DHT22;14992;50.844;4.418;2023-03-23T00:28:09;14.10;99.90
22337;DHT22;14992;50.844;4.418;2023-03-23T00:30:45;14.20;99.90
22337;DHT22;14992;50.844;4.418;2023-03-23T00:33:42;14.10;99.90
22337;DHT22;14992;50.844;4.418;2023-03-23T00:36:22;14.00;99.90
22337;DHT22;14992;50.844;4.418;2023-03-23T00:39:10;13.90;99.90
22337;DHT22;14992;50.844;4.418;2023-03-23T00:41:54;14.00;99.90
22337;DHT22;14992;50.844;4.418;2023-03-23T00:44:49;13.90;99.90
22337;DHT22;14992;50.844;4.418;2023-03-23T00:47:24;13.90;99.90
22337;DHT22;14992;50.844;4.418;2023-03-23T00:50:22;13.90;99.90
22337;DHT22;14992;50.844;4.418;2023-03-23T00:52:57;13.90;99.90
22337;DHT22;14992;50.844;4.418;2023-03-23T00:55:52;13.90;99.90
22337;DHT22;14992;50.844;4.418;2023-03-23T00:58:34;13.90;99.90
22337;DHT22;14992;50.844;4.418;2023-03-23T01:01:21;13.90;99.90
22337;DHT22;14992;50.844;4.418;2023-03-23T01:04:03;13.90;99.90
22337;DHT22;14992;50.844;4.418;2023-03-23T01:07:01;13.90;99.90
22337;DHT22;14992;50.844;4.418;2023-03-23T01:09:35;13.90;99.90
22337;DHT22;14992;50.844;4.418;2023-03-23T01:12:30;13.90;99.90
22337;DHT22;14992;50.844;4.418;2023-03-23T01:15:07;13.90;99.90
22337;DHT22;14992;50.844;4.418;2023-03-23T01:18:01;13.80;99.90
22337;DHT22;14992;50.844;4.418;2023-03-23T01:20:49;13.80;99.90
22337;DHT22;14992;50.844;4.418;2023-03-23T01:23:44;13.90;99.90
22337;DHT22;14992;50.844;4.418;2023-03-23T01:26:26;13.80;99.90
22337;DHT22;14992;50.844;4.418;2023-03-23T01:29:14;13.80;99.90
22337;DHT22;14992;50.844;4.418;2023-03-23T01:31:56;13.80;99.90
22337;DHT22;14992;50.844;4.418;2023-03-23T01:34:50;13.80;99.90
22337;DHT22;14992;50.844;4.418;2023-03-23T01:37:24;13.80;99.90
22337;DHT22;14992;50.844;4.418;2023-03-23T01:40:19;13.80;99.90
22337;DHT22;14992;50.844;4.418;2023-03-23T01:43:00;13.80;99.90
22337;DHT22;14992;50.844;4.418;2023-03-23T01:45:50;13.90;99.90
22337;DHT22;14992;50.844;4.418;2023-03-23T01:48:35;13.90;99.90
22337;DHT22;14992;50.844;4.418;2023-03-23T01:51:24;13.90;99.90
22337;DHT22;14992;50.844;4.418;2023-03-23T01:54:10;13.80;99.90
22337;DHT22;14992;50.844;4.418;2023-03-23T01:57:10;13.80;99.90
22337;DHT22;14992;50.844;4.418;2023-03-23T01:59:48;13.80;99.90
22337;DHT22;14992;50.844;4.418;2023-03-23T02:02:48;13.80;99.90
22337;DHT22;14992;50.844;4.418;2023-03-23T02:05:29;13.90;99.90
22337;DHT22;14992;50.844;4.418;2023-03-23T02:08:38;13.90;99.90
22337;DHT22;14992;50.844;4.418;2023-03-23T02:11:14;13.90;99.90
22337;DHT22;14992;50.844;4.418;2023-03-23T02:14:09;13.80;99.90
22337;DHT22;14992;50.844;4.418;2023-03-23T02:16:57;13.80;99.90
22337;DHT22;14992;50.844;4.418;2023-03-23T02:20:01;13.80;99.90
22337;DHT22;14992;50.844;4.418;2023-03-23T02:26:35;13.80;99.90
22337;DHT22;14992;50.844;4.418;2023-03-23T02:29:36;13.70;99.90
22337;DHT22;14992;50.844;4.418;2023-03-23T02:35:49;13.70;99.90
22337;DHT22;14992;50.844;4.418;2023-03-23T02:38:41;13.60;99.90
22337;DHT22;14992;50.844;4.418;2023-03-23T02:41:27;13.60;99.90
22337;DHT22;14992;50.844;4.418;2023-03-23T02:44:17;13.60;99.90
22337;DHT22;14992;50.844;4.418;2023-03-23T02:47:00;13.60;99.90
22337;DHT22;14992;50.844;4.418;2023-03-23T02:49:57;13.60;99.90
22337;DHT22;14992;50.844;4.418;2023-03-23T02:52:36;13.60;99.90
22337;DHT22;14992;50.844;4.418;2023-03-23T02:55:34;13.60;99.90
22337;DHT22;14992;50.844;4.418;2023-03-23T02:58:25;13.60;99.90
22337;DHT22;14992;50.844;4.418;2023-03-23T03:04:15;13.60;99.90
22337;DHT22;14992;50.844;4.418;2023-03-23T03:10:23;13.60;99.90
22337;DHT22;14992;50.844;4.418;2023-03-23T03:13:17;13.60;99.90
22337;DHT22;14992;50.844;4.418;2023-03-23T03:16:09;13.60;99.90
22337;DHT22;14992;50.844;4.418;2023-03-23T03:19:02;13.60;99.90
22337;DHT22;14992;50.844;4.418;2023-03-23T03:21:50;13.60;99.90
22337;DHT22;14992;50.844;4.418;2023-03-23T03:24:38;13.60;99.90
22337;DHT22;14992;50.844;4.418;2023-03-23T03:27:31;13.60;99.90
22337;DHT22;14992;50.844;4.418;2023-03-23T03:30:22;13.60;99.90
22337;DHT22;14992;50.844;4.418;2023-03-23T03:33:19;13.70;99.90
22337;DHT22;14992;50.844;4.418;2023-03-23T03:36:00;13.60;99.90
22337;DHT22;14992;50.844;4.418;2023-03-23T03:38:55;13.60;99.90
22337;DHT22;14992;50.844;4.418;2023-03-23T03:41:38;13.60;99.90
22337;DHT22;14992;50.844;4.418;2023-03-23T03:44:26;13.70;99.90
22337;DHT22;14992;50.844;4.418;2023-03-23T03:47:07;13.60;99.90
22337;DHT22;14992;50.844;4.418;2023-03-23T03:49:55;13.70;99.90
22337;DHT22;14992;50.844;4.418;2023-03-23T03:52:36;13.70;99.90
22337;DHT22;14992;50.844;4.418;2023-03-23T03:55:31;13.70;99.90
22337;DHT22;14992;50.844;4.418;2023-03-23T03:58:10;13.60;99.90
22337;DHT22;14992;50.844;4.418;2023-03-23T04:01:21;13.60;99.90
22337;DHT22;14992;50.844;4.418;2023-03-23T04:04:04;13.70;99.90
22337;DHT22;14992;50.844;4.418;2023-03-23T04:06:52;13.70;99.90
22337;DHT22;14992;50.844;4.418;2023-03-23T04:09:33;13.70;99.90
22337;DHT22;14992;50.844;4.418;2023-03-23T04:12:23;13.60;99.90
22337;DHT22;14992;50.844;4.418;2023-03-23T04:15:25;13.70;99.90
22337;DHT22;14992;50.844;4.418;2023-03-23T04:18:20;13.70;99.90
22337;DHT22;14992;50.844;4.418;2023-03-23T04:20:55;13.60;99.90
22337;DHT22;14992;50.844;4.418;2023-03-23T04:23:52;13.50;99.90
22337;DHT22;14992;50.844;4.418;2023-03-23T04:26:27;13.50;99.90
22337;DHT22;14992;50.844;4.418;2023-03-23T04:29:29;13.50;99.90
22337;DHT22;14992;50.844;4.418;2023-03-23T04:32:29;13.50;99.90
22337;DHT22;14992;50.844;4.418;2023-03-23T04:35:27;13.50;99.90
22337;DHT22;14992;50.844;4.418;2023-03-23T04:38:14;13.60;99.90
22337;DHT22;14992;50.844;4.418;2023-03-23T04:41:17;13.50;99.90
22337;DHT22;14992;50.844;4.418;2023-03-23T04:44:12;13.50;99.90
22337;DHT22;14992;50.844;4.418;2023-03-23T04:47:12;13.50;99.90
22337;DHT22;14992;50.844;4.418;2023-03-23T04:49:55;13.40;99.90
22337;DHT22;14992;50.844;4.418;2023-03-23T04:52:51;13.50;99.90
22337;DHT22;14992;50.844;4.418;2023-03-23T04:55:35;13.40;99.90
22337;DHT22;14992;50.844;4.418;2023-03-23T04:58:25;13.50;99.90
22337;DHT22;14992;50.844;4.418;2023-03-23T05:01:22;13.40;99.90
22337;DHT22;14992;50.844;4.418;2023-03-23T05:04:20;13.30;99.90
22337;DHT22;14992;50.844;4.418;2023-03-23T05:07:25;13.30;99.90
22337;DHT22;14992;50.844;4.418;2023-03-23T05:10:24;13.30;99.90
22337;DHT22;14992;50.844;4.418;2023-03-23T05:13:05;13.30;99.90
22337;DHT22;14992;50.844;4.418;2023-03-23T05:16:03;13.30;99.90
22337;DHT22;14992;50.844;4.418;2023-03-23T05:18:40;13.30;99.90
22337;DHT22;14992;50.844;4.418;2023-03-23T05:21:36;13.30;99.90
22337;DHT22;14992;50.844;4.418;2023-03-23T05:24:30;13.40;99.90
22337;DHT22;14992;50.844;4.418;2023-03-23T05:27:06;13.50;99.90
22337;DHT22;14992;50.844;4.418;2023-03-23T05:30:09;13.50;99.90
22337;DHT22;14992;50.844;4.418;2023-03-23T05:33:05;13.50;99.90
22337;DHT22;14992;50.844;4.418;2023-03-23T05:35:57;13.50;99.90
22337;DHT22;14992;50.844;4.418;2023-03-23T05:39:10;13.60;99.90
22337;DHT22;14992;50.844;4.418;2023-03-23T05:42:04;13.50;99.90
22337;DHT22;14992;50.844;4.418;2023-03-23T05:45:19;13.40;99.90
22337;DHT22;14992;50.844;4.418;2023-03-23T05:47:53;13.40;99.90
22337;DHT22;14992;50.844;4.418;2023-03-23T05:50:47;13.30;99.90
22337;DHT22;14992;50.844;4.418;2023-03-23T05:53:29;13.40;99.90
22337;DHT22;14992;50.844;4.418;2023-03-23T05:56:20;13.40;99.90
22337;DHT22;14992;50.844;4.418;2023-03-23T05:59:14;13.30;99.90
22337;DHT22;14992;50.844;4.418;2023-03-23T06:02:05;13.40;99.90
22337;DHT22;14992;50.844;4.418;2023-03-23T06:04:47;13.50;99.90
22337;DHT22;14992;50.844;4.418;2023-03-23T06:07:46;13.50;99.90
22337;DHT22;14992;50.844;4.418;2023-03-23T06:10:21;13.50;99.90
22337;DHT22;14992;50.844;4.418;2023-03-23T06:13:17;13.50;99.90
22337;DHT22;14992;50.844;4.418;2023-03-23T06:16:06;13.40;99.90
22337;DHT22;14992;50.844;4.418;2023-03-23T06:18:59;13.40;99.90
22337;DHT22;14992;50.844;4.418;2023-03-23T06:22:02;13.30;99.90
22337;DHT22;14992;50.844;4.418;2023-03-23T06:25:02;13.30;99.90
22337;DHT22;14992;50.844;4.418;2023-03-23T06:27:50;13.40;99.90
22337;DHT22;14992;50.844;4.418;2023-03-23T06:30:38;13.40;99.90
22337;DHT22;14992;50.844;4.418;2023-03-23T06:33:25;13.40;99.90
22337;DHT22;14992;50.844;4.418;2023-03-23T06:36:26;13.40;99.90
22337;DHT22;14992;50.844;4.418;2023-03-23T06:39:26;13.40;99.90
22337;DHT22;14992;50.844;4.418;2023-03-23T06:42:21;13.40;99.90
22337;DHT22;14992;50.844;4.418;2023-03-23T06:45:41;13.40;99.90
22337;DHT22;14992;50.844;4.418;2023-03-23T06:48:39;13.40;99.90
22337;DHT22;14992;50.844;4.418;2023-03-23T06:51:44;13.30;99.90
22337;DHT22;14992;50.844;4.418;2023-03-23T06:54:19;13.20;99.90
22337;DHT22;14992;50.844;4.418;2023-03-23T06:57:14;13.20;99.90
22337;DHT22;14992;50.844;4.418;2023-03-23T06:59:56;13.30;99.90
22337;DHT22;14992;50.844;4.418;2023-03-23T07:02:52;13.20;99.90
22337;DHT22;14992;50.844;4.418;2023-03-23T07:05:34;13.00;99.90
22337;DHT22;14992;50.844;4.418;2023-03-23T07:08:26;12.90;99.90
22337;DHT22;14992;50.844;4.418;2023-03-23T07:11:12;13.00;99.90
22337;DHT22;14992;50.844;4.418;2023-03-23T07:14:12;13.00;99.90
22337;DHT22;14992;50.844;4.418;2023-03-23T07:16:47;13.00;99.90
22337;DHT22;14992;50.844;4.418;2023-03-23T07:19:49;13.10;99.90
22337;DHT22;14992;50.844;4.418;2023-03-23T07:22:44;12.80;99.90
22337;DHT22;14992;50.844;4.418;2023-03-23T07:25:46;12.50;99.90
22337;DHT22;14992;50.844;4.418;2023-03-23T07:28:49;12.20;99.90
22337;DHT22;14992;50.844;4.418;2023-03-23T07:31:30;12.00;99.90
22337;DHT22;14992;50.844;4.418;2023-03-23T07:34:24;11.80;99.90
22337;DHT22;14992;50.844;4.418;2023-03-23T07:37:10;11.80;99.90
22337;DHT22;14992;50.844;4.418;2023-03-23T07:40:08;11.70;99.90
22337;DHT22;14992;50.844;4.418;2023-03-23T07:43:02;11.80;99.90
22337;DHT22;14992;50.844;4.418;2023-03-23T07:45:58;12.00;99.90
22337;DHT22;14992;50.844;4.418;2023-03-23T07:48:49;12.00;99.90
22337;DHT22;14992;50.844;4.418;2023-03-23T07:51:49;12.10;99.90
22337;DHT22;14992;50.844;4.418;2023-03-23T07:54:24;12.30;99.90
22337;DHT22;14992;50.844;4.418;2023-03-23T07:57:26;12.30;99.90
22337;DHT22;14992;50.844;4.418;2023-03-23T08:00:05;12.40;99.90
22337;DHT22;14992;50.844;4.418;2023-03-23T08:03:04;12.40;99.90
22337;DHT22;14992;50.844;4.418;2023-03-23T08:05:57;12.50;99.90
22337;DHT22;14992;50.844;4.418;2023-03-23T08:09:17;12.50;99.90
22337;DHT22;14992;50.844;4.418;2023-03-23T08:12:19;12.60;99.90
22337;DHT22;14992;50.844;4.418;2023-03-23T08:15:25;12.50;99.90
22337;DHT22;14992;50.844;4.418;2023-03-23T08:18:13;12.60;99.90
22337;DHT22;14992;50.844;4.418;2023-03-23T08:21:33;12.50;99.90
22337;DHT22;14992;50.844;4.418;2023-03-23T08:24:47;12.50;99.90
22337;DHT22;14992;50.844;4.418;2023-03-23T08:27:39;12.50;99.90
22337;DHT22;14992;50.844;4.418;2023-03-23T08:30:49;12.30;99.90
22337;DHT22;14992;50.844;4.418;2023-03-23T08:33:54;12.20;99.90
22337;DHT22;14992;50.844;4.418;2023-03-23T08:36:44;12.30;99.90
22337;DHT22;14992;50.844;4.418;2023-03-23T08:45:36;12.30;99.90
22337;DHT22;14992;50.844;4.418;2023-03-23T08:48:55;12.30;99.90
22337;DHT22;14992;50.844;4.418;2023-03-23T08:51:49;12.30;99.90
22337;DHT22;14992;50.844;4.418;2023-03-23T08:55:02;12.20;99.90
22337;DHT22;14992;50.844;4.418;2023-03-23T08:58:02;12.20;99.90
22337;DHT22;14992;50.844;4.418;2023-03-23T09:01:08;12.20;99.90
22337;DHT22;14992;50.844;4.418;2023-03-23T09:04:11;12.20;99.90
22337;DHT22;14992;50.844;4.418;2023-03-23T09:07:15;12.30;99.90
22337;DHT22;14992;50.844;4.418;2023-03-23T09:09:56;12.40;99.90
22337;DHT22;14992;50.844;4.418;2023-03-23T09:12:52;12.40;99.90
22337;DHT22;14992;50.844;4.418;2023-03-23T09:15:27;12.50;99.90
22337;DHT22;14992;50.844;4.418;2023-03-23T09:18:21;12.50;99.90
22337;DHT22;14992;50.844;4.418;2023-03-23T09:20:57;12.50;99.90
22337;DHT22;14992;50.844;4.418;2023-03-23T09:23:52;12.50;99.90
22337;DHT22;14992;50.844;4.418;2023-03-23T09:26:38;12.60;99.90
22337;DHT22;14992;50.844;4.418;2023-03-23T09:29:25;12.70;99.90
22337;DHT22;14992;50.844;4.418;2023-03-23T09:32:07;12.70;99.90
22337;DHT22;14992;50.844;4.418;2023-03-23T09:34:54;12.60;99.90
22337;DHT22;14992;50.844;4.418;2023-03-23T09:37:38;12.60;99.90
22337;DHT22;14992;50.844;4.418;2023-03-23T09:40:38;12.70;99.90
22337;DHT22;14992;50.844;4.418;2023-03-23T09:43:33;12.80;99.90
22337;DHT22;14992;50.844;4.418;2023-03-23T09:46:42;12.80;99.90
22337;DHT22;14992;50.844;4.418;2023-03-23T09:49:32;12.80;99.90
22337;DHT22;14992;50.844;4.418;2023-03-23T09:52:35;12.80;99.90
22337;DHT22;14992;50.844;4.418;2023-03-23T09:55:14;12.80;99.90
22337;DHT22;14992;50.844;4.418;2023-03-23T09:58:14;13.00;99.90
22337;DHT22;14992;50.844;4.418;2023-03-23T10:00:54;13.30;99.90
22337;DHT22;14992;50.844;4.418;2023-03-23T10:03:52;13.40;99.90
22337;DHT22;14992;50.844;4.418;2023-03-23T10:06:30;13.60;99.90
22337;DHT22;14992;50.844;4.418;2023-03-23T10:09:24;13.80;99.90
22337;DHT22;14992;50.844;4.418;2023-03-23T10:12:19;13.90;99.90
22337;DHT22;14992;50.844;4.418;2023-03-23T10:15:13;14.20;99.90
22337;DHT22;14992;50.844;4.418;2023-03-23T10:17:59;14.30;99.90
22337;DHT22;14992;50.844;4.418;2023-03-23T10:20:50;14.20;99.90
22337;DHT22;14992;50.844;4.418;2023-03-23T10:23:49;14.40;99.90
22337;DHT22;14992;50.844;4.418;2023-03-23T10:26:48;14.50;99.90
22337;DHT22;14992;50.844;4.418;2023-03-23T10:29:36;14.50;99.90
22337;DHT22;14992;50.844;4.418;2023-03-23T10:32:39;14.70;99.90
22337;DHT22;14992;50.844;4.418;2023-03-23T10:35:25;14.80;99.90
22337;DHT22;14992;50.844;4.418;2023-03-23T10:38:15;14.80;99.90
22337;DHT22;14992;50.844;4.418;2023-03-23T10:41:02;15.00;99.90
22337;DHT22;14992;50.844;4.418;2023-03-23T10:43:50;15.10;99.90
22337;DHT22;14992;50.844;4.418;2023-03-23T10:46:39;15.30;99.90
22337;DHT22;14992;50.844;4.418;2023-03-23T10:49:30;15.00;99.90
22337;DHT22;14992;50.844;4.418;2023-03-23T10:52:23;15.20;99.90
22337;DHT22;14992;50.844;4.418;2023-03-23T10:55:13;15.30;99.90
22337;DHT22;14992;50.844;4.418;2023-03-23T10:58:03;15.70;99.90
22337;DHT22;14992;50.844;4.418;2023-03-23T11:00:50;15.80;99.90
22337;DHT22;14992;50.844;4.418;2023-03-23T11:03:41;15.70;99.90
22337;DHT22;14992;50.844;4.418;2023-03-23T11:06:30;15.80;99.90
22337;DHT22;14992;50.844;4.418;2023-03-23T11:09:19;15.50;99.90
22337;DHT22;14992;50.844;4.418;2023-03-23T11:12:16;15.60;99.90
22337;DHT22;14992;50.844;4.418;2023-03-23T11:15:09;15.40;99.90
22337;DHT22;14992;50.844;4.418;2023-03-23T11:18:03;15.30;99.90
22337;DHT22;14992;50.844;4.418;2023-03-23T11:20:48;15.20;99.90
22337;DHT22;14992;50.844;4.418;2023-03-23T11:23:48;15.00;99.90
22337;DHT22;14992;50.844;4.418;2023-03-23T11:26:31;15.10;99.90
22337;DHT22;14992;50.844;4.418;2023-03-23T11:29:20;15.30;99.90
22337;DHT22;14992;50.844;4.418;2023-03-23T11:32:05;15.80;99.90
22337;DHT22;14992;50.844;4.418;2023-03-23T11:34:55;16.10;99.90
22337;DHT22;14992;50.844;4.418;2023-03-23T11:37:43;16.30;99.90
22337;DHT22;14992;50.844;4.418;2023-03-23T11:40:31;16.50;99.90
22337;DHT22;14992;50.844;4.418;2023-03-23T11:43:19;16.70;99.90
22337;DHT22;14992;50.844;4.418;2023-03-23T11:46:13;16.80;99.90
22337;DHT22;14992;50.844;4.418;2023-03-23T11:48:59;16.70;99.90
22337;DHT22;14992;50.844;4.418;2023-03-23T11:51:49;16.70;99.90
22337;DHT22;14992;50.844;4.418;2023-03-23T11:54:36;16.80;99.90
22337;DHT22;14992;50.844;4.418;2023-03-23T11:57:24;17.10;99.90
22337;DHT22;14992;50.844;4.418;2023-03-23T12:00:15;17.10;99.90
22337;DHT22;14992;50.844;4.418;2023-03-23T12:03:29;17.00;99.90
22337;DHT22;14992;50.844;4.418;2023-03-23T12:06:16;16.80;99.90
22337;DHT22;14992;50.844;4.418;2023-03-23T12:09:17;16.80;99.90
22337;DHT22;14992;50.844;4.418;2023-03-23T12:12:11;16.90;99.90
22337;DHT22;14992;50.844;4.418;2023-03-23T12:15:16;16.70;99.90
22337;DHT22;14992;50.844;4.418;2023-03-23T12:18:00;16.70;99.90
22337;DHT22;14992;50.844;4.418;2023-03-23T12:21:04;16.70;99.90
22337;DHT22;14992;50.844;4.418;2023-03-23T12:24:08;16.50;99.90
22337;DHT22;14992;50.844;4.418;2023-03-23T12:26:54;16.50;99.90
22337;DHT22;14992;50.844;4.418;2023-03-23T12:29:55;16.40;99.90
22337;DHT22;14992;50.844;4.418;2023-03-23T12:32:58;16.60;99.90
22337;DHT22;14992;50.844;4.418;2023-03-23T12:36:04;16.40;99.90
22337;DHT22;14992;50.844;4.418;2023-03-23T12:42:02;16.80;99.90
22337;DHT22;14992;50.844;4.418;2023-03-23T12:44:43;16.90;99.90
22337;DHT22;14992;50.844;4.418;2023-03-23T12:47:43;16.80;99.90
22337;DHT22;14992;50.844;4.418;2023-03-23T12:50:24;16.80;99.90
22337;DHT22;14992;50.844;4.418;2023-03-23T12:53:23;16.80;99.90
22337;DHT22;14992;50.844;4.418;2023-03-23T12:56:08;16.90;99.90
22337;DHT22;14992;50.844;4.418;2023-03-23T12:59:12;16.80;99.90
22337;DHT22;14992;50.844;4.418;2023-03-23T13:01:54;16.90;99.90
22337;DHT22;14992;50.844;4.418;2023-03-23T13:05:11;17.00;99.90
22337;DHT22;14992;50.844;4.418;2023-03-23T13:07:58;17.30;99.90
22337;DHT22;14992;50.844;4.418;2023-03-23T13:10:49;17.60;99.90
22337;DHT22;14992;50.844;4.418;2023-03-23T13:13:43;17.60;99.90
22337;DHT22;14992;50.844;4.418;2023-03-23T13:16:38;17.70;99.90
22337;DHT22;14992;50.844;4.418;2023-03-23T13:19:26;17.70;99.90
22337;DHT22;14992;50.844;4.418;2023-03-23T13:22:18;17.70;99.90
22337;DHT22;14992;50.844;4.418;2023-03-23T13:25:05;17.50;99.90
22337;DHT22;14992;50.844;4.418;2023-03-23T13:27:57;17.50;99.90
22337;DHT22;14992;50.844;4.418;2023-03-23T13:30:40;17.40;99.90
22337;DHT22;14992;50.844;4.418;2023-03-23T13:33:35;17.40;99.90
22337;DHT22;14992;50.844;4.418;2023-03-23T13:36:12;17.40;99.90
22337;DHT22;14992;50.844;4.418;2023-03-23T13:39:18;17.50;99.90
22337;DHT22;14992;50.844;4.418;2023-03-23T13:42:03;17.40;99.90
22337;DHT22;14992;50.844;4.418;2023-03-23T13:45:04;17.30;99.90
22337;DHT22;14992;50.844;4.418;2023-03-23T13:47:49;17.20;99.90
22337;DHT22;14992;50.844;4.418;2023-03-23T13:50:48;17.10;99.90
22337;DHT22;14992;50.844;4.418;2023-03-23T13:53:42;17.00;99.90
22337;DHT22;14992;50.844;4.418;2023-03-23T13:56:39;16.90;99.90
22337;DHT22;14992;50.844;4.418;2023-03-23T13:59:45;17.00;99.90
22337;DHT22;14992;50.844;4.418;2023-03-23T14:02:37;17.00;99.90
22337;DHT22;14992;50.844;4.418;2023-03-23T14:05:31;16.80;99.90
22337;DHT22;14992;50.844;4.418;2023-03-23T14:08:24;16.60;99.90
22337;DHT22;14992;50.844;4.418;2023-03-23T14:11:19;16.10;99.90
22337;DHT22;14992;50.844;4.418;2023-03-23T14:14:22;15.90;99.90
22337;DHT22;14992;50.844;4.418;2023-03-23T14:17:06;16.00;99.90
22337;DHT22;14992;50.844;4.418;2023-03-23T14:20:01;16.00;99.90
22337;DHT22;14992;50.844;4.418;2023-03-23T14:22:40;16.20;99.90
22337;DHT22;14992;50.844;4.418;2023-03-23T14:25:34;16.20;99.90
22337;DHT22;14992;50.844;4.418;2023-03-23T14:28:17;16.10;99.90
22337;DHT22;14992;50.844;4.418;2023-03-23T14:31:19;16.30;99.90
22337;DHT22;14992;50.844;4.418;2023-03-23T14:33:54;16.50;99.90
22337;DHT22;14992;50.844;4.418;2023-03-23T14:36:49;16.60;99.90
22337;DHT22;14992;50.844;4.418;2023-03-23T14:39:25;16.80;99.90
22337;DHT22;14992;50.844;4.418;2023-03-23T14:42:23;16.80;99.90
22337;DHT22;14992;50.844;4.418;2023-03-23T14:45:07;16.90;99.90
22337;DHT22;14992;50.844;4.418;2023-03-23T14:47:57;16.50;99.90
22337;DHT22;14992;50.844;4.418;2023-03-23T14:50:41;16.40;99.90
22337;DHT22;14992;50.844;4.418;2023-03-23T14:53:32;16.30;99.90
22337;DHT22;14992;50.844;4.418;2023-03-23T14:56:16;16.30;99.90
22337;DHT22;14992;50.844;4.418;2023-03-23T14:59:13;16.50;99.90
22337;DHT22;14992;50.844;4.418;2023-03-23T15:01:50;16.70;99.90
22337;DHT22;14992;50.844;4.418;2023-03-23T15:04:51;16.80;99.90
22337;DHT22;14992;50.844;4.418;2023-03-23T15:07:30;16.90;99.90
22337;DHT22;14992;50.844;4.418;2023-03-23T15:10:25;16.70;99.90
22337;DHT22;14992;50.844;4.418;2023-03-23T15:13:00;16.60;99.90
22337;DHT22;14992;50.844;4.418;2023-03-23T15:16:02;16.50;99.90
22337;DHT22;14992;50.844;4.418;2023-03-23T15:18:38;16.40;99.90
22337;DHT22;14992;50.844;4.418;2023-03-23T15:21:36;16.50;99.90
22337;DHT22;14992;50.844;4.418;2023-03-23T15:24:40;16.70;99.90
22337;DHT22;14992;50.844;4.418;2023-03-23T15:27:28;16.90;99.90
22337;DHT22;14992;50.844;4.418;2023-03-23T15:30:30;16.90;99.90
22337;DHT22;14992;50.844;4.418;2023-03-23T15:33:12;16.80;99.90
22337;DHT22;14992;50.844;4.418;2023-03-23T15:36:15;16.70;99.90
22337;DHT22;14992;50.844;4.418;2023-03-23T15:38:51;16.70;99.90
22337;DHT22;14992;50.844;4.418;2023-03-23T15:41:47;16.70;99.90
22337;DHT22;14992;50.844;4.418;2023-03-23T15:44:24;16.70;99.90
22337;DHT22;14992;50.844;4.418;2023-03-23T15:47:19;16.60;99.90
22337;DHT22;14992;50.844;4.418;2023-03-23T15:50:16;16.60;99.90
22337;DHT22;14992;50.844;4.418;2023-03-23T15:53:25;16.60;99.90
22337;DHT22;14992;50.844;4.418;2023-03-23T15:56:03;16.60;99.90
22337;DHT22;14992;50.844;4.418;2023-03-23T15:58:58;16.50;99.90
22337;DHT22;14992;50.844;4.418;2023-03-23T16:01:34;16.60;99.90
22337;DHT22;14992;50.844;4.418;2023-03-23T16:04:30;16.70;99.90
22337;DHT22;14992;50.844;4.418;2023-03-23T16:07:07;16.70;99.90
22337;DHT22;14992;50.844;4.418;2023-03-23T16:10:03;16.80;99.90
22337;DHT22;14992;50.844;4.418;2023-03-23T16:12:39;16.90;99.90
22337;DHT22;14992;50.844;4.418;2023-03-23T16:15:34;17.00;99.90
22337;DHT22;14992;50.844;4.418;2023-03-23T16:18:19;16.80;99.90
22337;DHT22;14992;50.844;4.418;2023-03-23T16:21:08;16.70;99.90
22337;DHT22;14992;50.844;4.418;2023-03-23T16:23:51;16.70;99.90
22337;DHT22;14992;50.844;4.418;2023-03-23T16:26:46;16.80;99.90
22337;DHT22;14992;50.844;4.418;2023-03-23T16:29:23;16.60;99.90
22337;DHT22;14992;50.844;4.418;2023-03-23T16:32:38;16.50;99.90
22337;DHT22;14992;50.844;4.418;2023-03-23T16:35:14;16.60;99.90
22337;DHT22;14992;50.844;4.418;2023-03-23T16:38:11;16.50;99.90
22337;DHT22;14992;50.844;4.418;2023-03-23T16:40:47;16.50;99.90
22337;DHT22;14992;50.844;4.418;2023-03-23T16:43:42;16.30;99.90
22337;DHT22;14992;50.844;4.418;2023-03-23T16:46:19;16.20;99.90
22337;DHT22;14992;50.844;4.418;2023-03-23T16:49:15;16.20;99.90
22337;DHT22;14992;50.844;4.418;2023-03-23T16:51:57;16.30;99.90
22337;DHT22;14992;50.844;4.418;2023-03-23T16:54:45;16.30;99.90
22337;DHT22;14992;50.844;4.418;2023-03-23T16:57:28;16.30;99.90
22337;DHT22;14992;50.844;4.418;2023-03-23T17:00:18;16.20;99.90
22337;DHT22;14992;50.844;4.418;2023-03-23T17:03:02;16.20;99.90
22337;DHT22;14992;50.844;4.418;2023-03-23T17:05:59;16.10;99.90
22337;DHT22;14992;50.844;4.418;2023-03-23T17:08:34;16.10;99.90
22337;DHT22;14992;50.844;4.418;2023-03-23T17:11:29;16.10;99.90
22337;DHT22;14992;50.844;4.418;2023-03-23T17:14:12;16.20;99.90
22337;DHT22;14992;50.844;4.418;2023-03-23T17:17:00;16.30;99.90
22337;DHT22;14992;50.844;4.418;2023-03-23T17:19:47;16.20;99.90
22337;DHT22;14992;50.844;4.418;2023-03-23T17:22:36;16.30;99.90
22337;DHT22;14992;50.844;4.418;2023-03-23T17:25:18;16.30;99.90
22337;DHT22;14992;50.844;4.418;2023-03-23T17:28:13;16.40;99.90
22337;DHT22;14992;50.844;4.418;2023-03-23T17:30:52;16.20;99.90
22337;DHT22;14992;50.844;4.418;2023-03-23T17:33:48;16.30;99.90
22337;DHT22;14992;50.844;4.418;2023-03-23T17:36:26;16.10;99.90
22337;DHT22;14992;50.844;4.418;2023-03-23T17:39:21;16.00;99.90
22337;DHT22;14992;50.844;4.418;2023-03-23T17:42:03;15.90;99.90
22337;DHT22;14992;50.844;4.418;2023-03-23T17:44:51;15.80;99.90
22337;DHT22;14992;50.844;4.418;2023-03-23T17:47:34;15.80;99.90
22337;DHT22;14992;50.844;4.418;2023-03-23T17:50:29;15.80;99.90
22337;DHT22;14992;50.844;4.418;2023-03-23T17:53:06;15.90;99.90
22337;DHT22;14992;50.844;4.418;2023-03-23T17:56:02;15.80;99.90
22337;DHT22;14992;50.844;4.418;2023-03-23T17:58:37;15.70;99.90
22337;DHT22;14992;50.844;4.418;2023-03-23T18:01:32;15.70;99.90
22337;DHT22;14992;50.844;4.418;2023-03-23T18:04:08;15.80;99.90
22337;DHT22;14992;50.844;4.418;2023-03-23T18:07:03;15.80;99.90
22337;DHT22;14992;50.844;4.418;2023-03-23T18:09:47;15.90;99.90
22337;DHT22;14992;50.844;4.418;2023-03-23T18:12:35;15.90;99.90
22337;DHT22;14992;50.844;4.418;2023-03-23T18:15:18;16.00;99.90
22337;DHT22;14992;50.844;4.418;2023-03-23T18:18:14;16.00;99.90
22337;DHT22;14992;50.844;4.418;2023-03-23T18:20:53;16.10;99.90